ADDS TAF Data INFO
IDs: Format: Raw Decoded Include METARs

Data at: 0652 UTC 18 Feb 2018

KTLH 180523Z 1806/1906 18004KT 4SM BR BKN003
  FM180700 00000KT 1SM BR BKN002
  FM180900 00000KT 1/4SM FG VV001
  FM181400 00000KT 1SM BR BKN002
  FM181500 18003KT P6SM BKN015
  FM181700 18005KT P6SM BKN050